createdAt,value
2022-08-27T00:01:38.679Z,99565.16
2022-08-27T00:04:05.716Z,99565.16
2022-08-27T00:06:32.861Z,99575.75
2022-08-27T00:08:59.995Z,99567.06
2022-08-27T00:11:26.975Z,99567.66
2022-08-27T00:13:55.284Z,99565.16
2022-08-27T00:16:22.686Z,99556.22
2022-08-27T00:18:50.376Z,99552.16
2022-08-27T00:21:18.770Z,99556.75
2022-08-27T00:23:46.096Z,99564.06
2022-08-27T00:26:15.150Z,99555.13
2022-08-27T00:28:43.392Z,99546.44
2022-08-27T00:31:12.338Z,99547.25
2022-08-27T00:33:40.544Z,99547.25
2022-08-27T00:36:08.879Z,99547.00
2022-08-27T00:38:38.503Z,99537.81
2022-08-27T00:41:09.250Z,99542.41
2022-08-27T00:43:49.519Z,99536.41
2022-08-27T00:46:39.546Z,99540.19
2022-08-27T00:49:52.438Z,99539.91
2022-08-27T00:52:39.984Z,99530.72
2022-08-27T00:55:17.884Z,99535.88
2022-08-27T00:57:50.180Z,99533.16
2022-08-27T01:00:19.631Z,99533.41
2022-08-27T01:02:48.360Z,99532.06
2022-08-27T01:05:20.708Z,99531.22
2022-08-27T01:07:56.191Z,99527.69
2022-08-27T01:10:26.646Z,99524.97
2022-08-27T01:12:54.587Z,99529.03
2022-08-27T01:15:26.390Z,99524.69
2022-08-27T01:17:54.375Z,99520.34
2022-08-27T01:20:35.692Z,99528.72
2022-08-27T01:23:29.297Z,99520.31
2022-08-27T01:25:57.421Z,99521.66
2022-08-27T01:28:29.255Z,99522.47
2022-08-27T01:31:08.426Z,99521.94
2022-08-27T01:33:35.646Z,99516.78
2022-08-27T01:36:04.307Z,99513.25
2022-08-27T01:38:31.615Z,99513.25
2022-08-27T01:41:00.398Z,99511.63
2022-08-27T01:43:31.068Z,99508.94
2022-08-27T01:45:58.333Z,99510.25
2022-08-27T01:48:25.462Z,99513.75
2022-08-27T01:50:52.508Z,99514.84
2022-08-27T01:53:23.781Z,99516.72
2022-08-27T01:55:52.691Z,99509.41
2022-08-27T01:58:26.770Z,99513.19
2022-08-27T02:01:00.063Z,99516.97
2022-08-27T02:03:27.482Z,99519.69
2022-08-27T02:05:54.856Z,99512.66
2022-08-27T02:08:22.407Z,99508.06
2022-08-27T02:10:50.566Z,99516.44
2022-08-27T02:13:18.653Z,99507.25
2022-08-27T02:15:45.962Z,99500.19
2022-08-27T02:18:13.818Z,99494.78
2022-08-27T02:20:44.684Z,99493.09
2022-08-27T02:23:12.690Z,99499.59
2022-08-27T02:25:39.736Z,99491.72
2022-08-27T02:28:09.249Z,99497.97
2022-08-27T02:30:37.551Z,99499.03
2022-08-27T02:33:05.613Z,99500.09
2022-08-27T02:35:35.830Z,99504.44
2022-08-27T02:38:03.353Z,99503.63
2022-08-27T02:40:30.407Z,99502.81
2022-08-27T02:42:57.488Z,99502.81
2022-08-27T02:45:24.517Z,99502.00
2022-08-27T02:47:51.563Z,99508.50
2022-08-27T02:50:18.790Z,99512.00
2022-08-27T02:52:46.397Z,99504.97
2022-08-27T02:55:14.598Z,99508.50
2022-08-27T02:57:45.466Z,99516.59
2022-08-27T03:00:18.945Z,99514.13
2022-08-27T03:02:46.076Z,99508.72
2022-08-27T03:05:14.626Z,99512.25
2022-08-27T03:07:42.485Z,99514.13
2022-08-27T03:10:13.462Z,99514.13
2022-08-27T03:12:41.655Z,99515.78
2022-08-27T03:15:13.573Z,99517.41
2022-08-27T03:17:59.497Z,99513.09
2022-08-27T03:20:27.513Z,99510.38
2022-08-27T03:22:54.695Z,99514.94
2022-08-27T03:25:22.041Z,99515.78
2022-08-27T03:27:49.022Z,99503.31
2022-08-27T03:30:21.898Z,99506.00
2022-08-27T03:32:48.920Z,99512.50
2022-08-27T03:35:17.085Z,99501.94
2022-08-27T03:37:44.142Z,99508.44
2022-08-27T03:40:12.365Z,99509.72
2022-08-27T03:42:41.580Z,99502.69
2022-08-27T03:45:10.354Z,99509.19
2022-08-27T03:47:37.991Z,99513.22
2022-08-27T03:50:07.203Z,99507.22
2022-08-27T03:52:35.890Z,99508.31
2022-08-27T03:55:06.020Z,99510.44
2022-08-27T03:57:33.573Z,99509.09
2022-08-27T04:00:01.173Z,99510.13
2022-08-27T04:02:28.572Z,99513.91
2022-08-27T04:04:57.556Z,99518.75
2022-08-27T04:07:24.609Z,99526.06
2022-08-27T04:09:51.662Z,99530.09
2022-08-27T04:12:18.717Z,99530.56
2022-08-27T04:14:45.748Z,99525.16
2022-08-27T04:17:13.057Z,99528.94
2022-08-27T04:19:40.076Z,99538.13
2022-08-27T04:22:08.024Z,99536.25
2022-08-27T04:24:37.414Z,99541.09
2022-08-27T04:27:05.941Z,99543.81
2022-08-27T04:29:33.394Z,99540.03
2022-08-27T04:32:01.134Z,99541.91
2022-08-27T04:34:28.259Z,99540.84
2022-08-27T04:36:57.248Z,99546.25
2022-08-27T04:39:27.013Z,99548.13
2022-08-27T04:41:57.174Z,99546.72
2022-08-27T04:44:31.108Z,99540.28
2022-08-27T04:47:04.857Z,99542.97
2022-08-27T04:49:33.783Z,99537.56
2022-08-27T04:52:01.207Z,99540.75
2022-08-27T04:54:32.615Z,99539.13
2022-08-27T04:57:03.118Z,99535.34
2022-08-27T04:59:31.712Z,99537.00
2022-08-27T05:01:59.615Z,99538.63
2022-08-27T05:04:26.770Z,99537.00
2022-08-27T05:06:54.814Z,99532.16
2022-08-27T05:09:24.625Z,99544.63
2022-08-27T05:11:55.320Z,99537.06
2022-08-27T05:14:24.120Z,99537.06
2022-08-27T05:16:51.536Z,99539.25
2022-08-27T05:19:18.503Z,99535.50
2022-08-27T05:21:49.261Z,99536.06
2022-08-27T05:24:17.562Z,99535.78
2022-08-27T05:26:45.629Z,99536.34
2022-08-27T05:29:14.199Z,99523.66
2022-08-27T05:31:42.458Z,99530.47
2022-08-27T05:34:15.444Z,99524.22
2022-08-27T05:36:52.348Z,99529.13
2022-08-27T05:39:19.372Z,99536.16
2022-08-27T05:41:46.374Z,99527.00
2022-08-27T05:44:39.626Z,99530.25
2022-08-27T05:47:03.104Z,99532.72
2022-08-27T05:49:31.685Z,99528.91
2022-08-27T05:51:58.661Z,99530.56
2022-08-27T05:54:25.661Z,99531.94
2022-08-27T05:56:52.817Z,99536.28
2022-08-27T05:59:38.344Z,99540.34
2022-08-27T06:02:06.866Z,99539.28
2022-08-27T06:04:34.248Z,99539.88
2022-08-27T06:07:01.265Z,99542.31
2022-08-27T06:09:29.363Z,99544.50
2022-08-27T06:11:58.690Z,99543.47
2022-08-27T06:14:26.419Z,99544.84
2022-08-27T06:16:53.412Z,99534.84
2022-08-27T06:19:20.780Z,99542.47
2022-08-27T06:22:00.787Z,99540.31
2022-08-27T06:24:38.190Z,99537.34
2022-08-27T06:27:05.578Z,99547.34
2022-08-27T06:29:33.384Z,99549.00
2022-08-27T06:32:00.355Z,99553.31
2022-08-27T06:34:27.384Z,99552.25
2022-08-27T06:36:54.418Z,99555.75
2022-08-27T06:39:21.538Z,99552.25
2022-08-27T06:41:50.161Z,99554.94
2022-08-27T06:44:22.075Z,99559.31
2022-08-27T06:46:49.097Z,99564.72
2022-08-27T06:49:16.575Z,99560.94
2022-08-27T06:51:46.818Z,99556.34
2022-08-27T06:54:15.949Z,99568.81
2022-08-27T06:56:44.459Z,99564.22
2022-08-27T06:59:15.884Z,99566.66
2022-08-27T07:01:47.011Z,99567.47
2022-08-27T07:04:21.219Z,99569.09
2022-08-27T07:06:49.150Z,99579.91
2022-08-27T07:09:17.058Z,99570.75
2022-08-27T07:11:44.044Z,99570.75
2022-08-27T07:14:11.132Z,99575.09
2022-08-27T07:16:40.848Z,99574.00
2022-08-27T07:19:08.087Z,99569.41
2022-08-27T07:21:35.942Z,99568.06
2022-08-27T07:24:05.490Z,99572.44
2022-08-27T07:26:39.615Z,99578.41
2022-08-27T07:29:08.944Z,99576.00
2022-08-27T07:31:36.604Z,99578.47
2022-08-27T07:34:05.156Z,99583.63
2022-08-27T07:36:34.534Z,99590.97
2022-08-27T07:39:02.232Z,99588.00
2022-08-27T07:41:53.964Z,99590.19
2022-08-27T07:44:28.240Z,99592.16
2022-08-27T07:47:02.325Z,99591.59
2022-08-27T07:49:29.985Z,99592.75
2022-08-27T07:51:57.284Z,99594.94
2022-08-27T07:54:25.421Z,99596.88
2022-08-27T07:56:55.279Z,99600.44
2022-08-27T07:59:24.799Z,99604.78
2022-08-27T08:01:52.514Z,99605.59
2022-08-27T08:04:20.608Z,99601.59
2022-08-27T08:06:49.270Z,99603.22
2022-08-27T08:09:16.216Z,99610.25
2022-08-27T08:11:43.251Z,99600.53
2022-08-27T08:14:10.231Z,99600.84
2022-08-27T08:16:37.242Z,99601.16
2022-08-27T08:19:04.265Z,99613.09
2022-08-27T08:21:31.606Z,99603.97
2022-08-27T08:23:58.663Z,99611.31
2022-08-27T08:26:25.615Z,99605.69
2022-08-27T08:28:52.599Z,99615.47
2022-08-27T08:31:19.757Z,99610.66
2022-08-27T08:33:48.603Z,99603.63
2022-08-27T08:36:17.418Z,99612.59
2022-08-27T08:38:47.241Z,99612.09
2022-08-27T08:41:43.225Z,99618.34
2022-08-27T08:44:32.655Z,99616.72
2022-08-27T08:47:16.719Z,99620.28
2022-08-27T08:49:47.114Z,99614.34
2022-08-27T08:52:47.711Z,99614.91
2022-08-27T08:55:51.944Z,99613.03
2022-08-27T08:58:51.383Z,99620.63
2022-08-27T09:01:21.460Z,99615.50
2022-08-27T09:04:02.519Z,99618.78
2022-08-27T09:06:55.031Z,99622.03
2022-08-27T09:09:32.296Z,99623.91
2022-08-27T09:12:05.666Z,99628.25
2022-08-27T09:14:46.318Z,99627.75
2022-08-27T09:17:13.840Z,99625.03
2022-08-27T09:19:41.624Z,99622.59
2022-08-27T09:22:33.477Z,99631.81
2022-08-27T09:25:33.053Z,99624.19
2022-08-27T09:28:06.438Z,99626.63
2022-08-27T09:30:43.080Z,99632.63
2022-08-27T09:33:10.812Z,99630.47
2022-08-27T09:35:46.824Z,99633.72
2022-08-27T09:38:33.954Z,99630.75
2022-08-27T09:41:17.442Z,99636.97
2022-08-27T09:43:45.093Z,99639.44
2022-08-27T09:46:22.342Z,99633.22
2022-08-27T09:48:52.217Z,99639.44
2022-08-27T09:51:28.172Z,99642.16
2022-08-27T09:54:03.132Z,99643.25
2022-08-27T09:56:47.152Z,99634.84
2022-08-27T09:59:24.571Z,99639.44
2022-08-27T10:02:04.357Z,99634.84
2022-08-27T10:04:50.410Z,99633.75
2022-08-27T10:07:37.953Z,99631.03
2022-08-27T10:10:30.142Z,99634.84
2022-08-27T10:13:18.548Z,99634.84
2022-08-27T10:16:26.177Z,99635.94
2022-08-27T10:19:35.620Z,99629.94
2022-08-27T10:22:31.920Z,99629.94
2022-08-27T10:25:39.531Z,99633.22
2022-08-27T10:28:22.507Z,99633.22
2022-08-27T10:31:25.145Z,99634.28
2022-08-27T10:34:12.527Z,99633.19
2022-08-27T10:36:59.313Z,99636.66
2022-08-27T10:40:16.047Z,99643.44
2022-08-27T10:43:27.344Z,99644.53
2022-08-27T10:46:50.357Z,99634.47
2022-08-27T10:49:38.930Z,99631.75
2022-08-27T10:52:32.246Z,99628.78
2022-08-27T10:55:45.434Z,99633.69
2022-08-27T10:58:34.168Z,99632.34
2022-08-27T11:01:48.527Z,99635.03
2022-08-27T11:04:29.288Z,99645.63
2022-08-27T11:07:05.304Z,99642.91
2022-08-27T11:10:10.444Z,99634.22
2022-08-27T11:12:44.376Z,99633.41
2022-08-27T11:15:36.730Z,99636.94
2022-08-27T11:18:42.361Z,99633.16
2022-08-27T11:21:34.523Z,99633.97
2022-08-27T11:24:35.247Z,99629.88
2022-08-27T11:27:07.523Z,99622.84
2022-08-27T11:29:53.287Z,99622.25
2022-08-27T11:33:01.417Z,99633.91
2022-08-27T11:36:20.748Z,99627.72
2022-08-27T11:39:28.126Z,99626.41
2022-08-27T11:42:25.555Z,99623.91
2022-08-27T11:45:04.669Z,99622.56
2022-08-27T11:47:32.881Z,99624.47
2022-08-27T11:50:10.329Z,99628.81
2022-08-27T11:52:54.796Z,99624.47
2022-08-27T11:55:21.595Z,99625.53
2022-08-27T11:58:53.427Z,99621.72
2022-08-27T12:01:31.559Z,99622.25
2022-08-27T12:04:30.954Z,99620.13
2022-08-27T12:07:16.754Z,99615.25
2022-08-27T12:10:26.949Z,99607.66
2022-08-27T12:13:13.081Z,99605.22
2022-08-27T12:16:07.012Z,99603.31
2022-08-27T12:18:49.483Z,99602.53
2022-08-27T12:21:39.377Z,99604.97
2022-08-27T12:24:27.199Z,99600.91
2022-08-27T12:27:12.938Z,99595.19
2022-08-27T12:29:53.042Z,99599.53
2022-08-27T12:32:35.782Z,99594.94
2022-08-27T12:35:22.852Z,99593.34
2022-08-27T12:38:17.566Z,99596.06
2022-08-27T12:40:57.552Z,99588.22
2022-08-27T12:43:28.841Z,99576.78
2022-08-27T12:46:02.139Z,99580.88
2022-08-27T12:48:37.602Z,99584.97
2022-08-27T12:51:14.087Z,99584.75
2022-08-27T12:53:54.346Z,99583.69
2022-08-27T12:57:14.005Z,99580.72
2022-08-27T13:00:19.586Z,99577.50
2022-08-27T13:02:58.929Z,99582.41
2022-08-27T13:05:26.328Z,99570.72
2022-08-27T13:07:54.388Z,99571.53
2022-08-27T13:10:31.017Z,99571.56
2022-08-27T13:13:21.240Z,99577.53
2022-08-27T13:15:55.639Z,99569.69
2022-08-27T13:18:24.580Z,99569.41
2022-08-27T13:21:17.013Z,99562.91
2022-08-27T13:24:01.481Z,99564.81
2022-08-27T13:26:37.315Z,99559.13
2022-08-27T13:29:07.424Z,99569.72
2022-08-27T13:31:35.709Z,99562.91
2022-08-27T13:34:06.609Z,99568.34
2022-08-27T13:37:04.028Z,99562.38
2022-08-27T13:39:32.764Z,99564.56
2022-08-27T13:42:03.656Z,99567.81
2022-08-27T13:44:37.591Z,99565.91
2022-08-27T13:47:07.986Z,99564.56
2022-08-27T13:49:39.856Z,99559.41
2022-08-27T13:52:27.379Z,99562.91
2022-08-27T13:55:15.719Z,99557.75
2022-08-27T13:57:51.344Z,99553.09
2022-08-27T14:00:27.101Z,99559.09
2022-08-27T14:02:56.339Z,99558.00
2022-08-27T14:05:23.426Z,99560.16
2022-08-27T14:07:58.594Z,99556.91
2022-08-27T14:10:41.146Z,99555.28
2022-08-27T14:13:10.927Z,99556.09
2022-08-27T14:19:09.393Z,99563.97
2022-08-27T14:21:40.900Z,99561.78
2022-08-27T14:24:08.458Z,99562.63
2022-08-27T14:26:35.934Z,99567.22
2022-08-27T14:29:03.072Z,99566.66
2022-08-27T14:31:38.863Z,99565.59
2022-08-27T14:34:08.262Z,99560.16
2022-08-27T14:36:39.694Z,99566.41
2022-08-27T14:39:08.128Z,99568.84
2022-08-27T14:41:36.044Z,99559.59
2022-08-27T14:44:03.580Z,99559.59
2022-08-27T14:46:36.395Z,99561.50
2022-08-27T14:49:21.995Z,99562.34
2022-08-27T14:51:49.195Z,99555.81
2022-08-27T14:54:16.157Z,99556.34
2022-08-27T14:56:43.241Z,99557.44
2022-08-27T14:59:10.243Z,99553.66
2022-08-27T15:01:38.014Z,99555.84
2022-08-27T15:04:05.974Z,99554.25
2022-08-27T15:06:33.506Z,99546.88
2022-08-27T15:09:00.638Z,99539.53
2022-08-27T15:11:34.530Z,99547.41
2022-08-27T15:14:05.178Z,99554.72
2022-08-27T15:16:35.905Z,99558.50
2022-08-27T15:19:04.903Z,99560.94
2022-08-27T15:21:31.943Z,99556.59
2022-08-27T15:24:02.910Z,99557.13
2022-08-27T15:26:30.431Z,99547.03
2022-08-27T15:28:57.511Z,99556.31
2022-08-27T15:31:24.791Z,99557.13
2022-08-27T15:33:51.900Z,99554.13
2022-08-27T15:36:18.896Z,99559.84
2022-08-27T15:38:45.891Z,99558.47
2022-08-27T15:41:12.904Z,99561.19
2022-08-27T15:43:40.407Z,99557.38
2022-08-27T15:46:07.611Z,99554.34
2022-08-27T15:48:34.748Z,99553.25
2022-08-27T15:51:08.964Z,99551.91
2022-08-27T15:53:38.021Z,99556.25
2022-08-27T15:56:08.024Z,99551.63
2022-08-27T15:58:38.348Z,99555.69
2022-08-27T16:01:12.088Z,99551.91
2022-08-27T16:03:43.533Z,99552.16
2022-08-27T16:06:10.651Z,99554.63
2022-08-27T16:08:42.035Z,99551.63
2022-08-27T16:11:09.804Z,99550.81
2022-08-27T16:13:37.792Z,99556.81
2022-08-27T16:16:06.862Z,99555.16
2022-08-27T16:18:35.176Z,99552.19
2022-08-27T16:21:04.602Z,99550.81
2022-08-27T16:23:33.027Z,99556.53
2022-08-27T16:26:00.476Z,99556.78
2022-08-27T16:28:27.659Z,99550.78
2022-08-27T16:30:56.294Z,99558.91
2022-08-27T16:33:24.131Z,99559.19
2022-08-27T16:35:52.476Z,99560.00
2022-08-27T16:38:19.712Z,99553.16
2022-08-27T16:40:53.240Z,99557.25
2022-08-27T16:43:28.476Z,99556.66
2022-08-27T16:45:59.167Z,99557.78
2022-08-27T16:48:45.595Z,99560.47
2022-08-27T16:51:32.674Z,99553.94
2022-08-27T16:54:04.877Z,99555.56
2022-08-27T16:56:37.123Z,99557.75
2022-08-27T16:59:05.716Z,99548.50
2022-08-27T17:01:33.613Z,99553.13
2022-08-27T17:04:10.146Z,99567.03
2022-08-27T17:06:42.374Z,99563.19
2022-08-27T17:09:10.416Z,99567.56
2022-08-27T17:11:41.827Z,99561.88
2022-08-27T17:14:10.744Z,99565.66
2022-08-27T17:16:40.340Z,99580.13
2022-08-27T17:19:09.606Z,99592.13
2022-08-27T17:21:37.419Z,99578.25
2022-08-27T17:24:05.408Z,99583.97
2022-08-27T17:26:39.582Z,99568.78
2022-08-27T17:29:06.535Z,99574.25
2022-08-27T17:31:38.259Z,99574.81
2022-08-27T17:34:07.286Z,99580.00
2022-08-27T17:36:34.739Z,99577.56
2022-08-27T17:39:02.978Z,99573.22
2022-08-27T17:41:38.791Z,99580.84
2022-08-27T17:44:31.613Z,99582.47
2022-08-27T17:47:01.632Z,99586.84
2022-08-27T17:49:31.078Z,99584.94
2022-08-27T17:52:02.483Z,99592.28
2022-08-27T17:54:36.049Z,99585.69
2022-08-27T17:57:29.835Z,99586.81
2022-08-27T18:00:10.528Z,99593.81
2022-08-27T18:02:45.342Z,99594.91
2022-08-27T18:05:14.925Z,99603.03
2022-08-27T18:07:43.124Z,99605.72
2022-08-27T18:10:14.683Z,99602.44
2022-08-27T18:12:42.996Z,99610.03
2022-08-27T18:15:28.049Z,99610.53
2022-08-27T18:17:56.930Z,99613.53
2022-08-27T18:20:27.717Z,99608.88
2022-08-27T18:22:55.084Z,99611.06
2022-08-27T18:25:25.714Z,99612.69
2022-08-27T18:27:57.513Z,99614.31
2022-08-27T18:30:25.640Z,99615.69
2022-08-27T18:32:53.131Z,99618.66
2022-08-27T18:35:31.343Z,99615.41
2022-08-27T18:37:58.679Z,99611.88
2022-08-27T18:40:30.791Z,99627.88
2022-08-27T18:42:58.414Z,99625.72
2022-08-27T18:45:28.418Z,99626.25
2022-08-27T18:47:58.867Z,99639.81
2022-08-27T18:50:27.236Z,99639.00
2022-08-27T18:52:56.540Z,99649.03
2022-08-27T18:55:27.966Z,99653.09
2022-08-27T18:57:55.068Z,99650.91
2022-08-27T19:00:22.234Z,99657.66
2022-08-27T19:02:52.599Z,99661.47
2022-08-27T19:05:26.695Z,99660.63
2022-08-27T19:07:55.930Z,99671.75
2022-08-27T19:10:23.182Z,99665.50
2022-08-27T19:12:50.151Z,99662.78
2022-08-27T19:15:17.508Z,99658.69
2022-08-27T19:17:53.504Z,99663.28
2022-08-27T19:20:20.817Z,99669.81
2022-08-27T19:22:48.737Z,99665.72
2022-08-27T19:25:17.692Z,99675.78
2022-08-27T19:27:46.482Z,99671.44
2022-08-27T19:30:16.187Z,99671.16
2022-08-27T19:32:43.958Z,99673.88
2022-08-27T19:35:11.239Z,99673.88
2022-08-27T19:37:52.629Z,99672.50
2022-08-27T19:40:22.271Z,99676.03
2022-08-27T19:42:50.209Z,99682.28
2022-08-27T19:45:23.323Z,99680.38
2022-08-27T19:47:52.942Z,99696.06
2022-08-27T19:50:22.181Z,99686.06
2022-08-27T19:52:50.647Z,99685.50
2022-08-27T19:55:17.756Z,99688.22
2022-08-27T19:57:45.192Z,99694.16
2022-08-27T20:00:16.702Z,99690.34
2022-08-27T20:02:43.652Z,99690.59
2022-08-27T20:05:19.220Z,99693.81
2022-08-27T20:07:49.326Z,99686.22
2022-08-27T20:10:18.328Z,99698.16
2022-08-27T20:12:45.417Z,99694.31
2022-08-27T20:15:13.572Z,99696.47
2022-08-27T20:17:40.988Z,99696.16
2022-08-27T20:20:08.922Z,99698.31
2022-08-27T20:22:36.068Z,99704.56
2022-08-27T20:25:03.557Z,99711.59
2022-08-27T20:27:30.547Z,99712.09
2022-08-27T20:29:58.078Z,99707.44
2022-08-27T20:32:29.822Z,99707.97
2022-08-27T20:34:57.728Z,99718.25
2022-08-27T20:37:25.300Z,99717.94
2022-08-27T20:39:52.542Z,99717.44
2022-08-27T20:42:20.428Z,99720.97
2022-08-27T20:44:48.599Z,99720.41
2022-08-27T20:47:17.363Z,99728.03
2022-08-27T20:49:44.558Z,99726.94
2022-08-27T20:52:14.793Z,99732.09
2022-08-27T20:54:42.086Z,99726.94
2022-08-27T20:57:09.399Z,99726.13
2022-08-27T20:59:55.856Z,99731.56
2022-08-27T21:02:26.670Z,99728.03
2022-08-27T21:04:54.642Z,99735.34
2022-08-27T21:07:23.298Z,99732.06
2022-08-27T21:09:56.111Z,99732.31
2022-08-27T21:12:28.268Z,99725.53
2022-08-27T21:14:56.630Z,99733.66
2022-08-27T21:17:27.082Z,99715.75
2022-08-27T21:19:55.014Z,99721.19
2022-08-27T21:22:23.745Z,99728.72
2022-08-27T21:24:51.647Z,99727.69
2022-08-27T21:27:21.196Z,99729.81
2022-08-27T21:29:49.254Z,99730.91
2022-08-27T21:32:17.357Z,99735.22
2022-08-27T21:34:44.657Z,99732.53
2022-08-27T21:37:14.104Z,99729.81
2022-08-27T21:39:42.992Z,99734.41
2022-08-27T21:42:12.442Z,99730.91
2022-08-27T21:44:39.570Z,99739.03
2022-08-27T21:47:06.980Z,99732.53
2022-08-27T21:49:34.732Z,99740.38
2022-08-27T21:52:05.803Z,99730.41
2022-08-27T21:54:40.018Z,99735.56
2022-08-27T21:57:07.875Z,99739.09
2022-08-27T21:59:43.083Z,99737.44
2022-08-27T22:02:35.925Z,99736.88
2022-08-27T22:04:57.453Z,99733.66
2022-08-27T22:07:24.597Z,99729.88
2022-08-27T22:09:51.544Z,99726.59
2022-08-27T22:12:18.702Z,99734.16
2022-08-27T22:14:45.736Z,99726.28
2022-08-27T22:17:15.721Z,99721.69
2022-08-27T22:19:43.097Z,99727.09
2022-08-27T22:22:10.285Z,99730.91
2022-08-27T22:24:37.314Z,99726.00
2022-08-27T22:27:04.577Z,99728.44
2022-08-27T22:29:31.639Z,99722.22
2022-08-27T22:31:58.915Z,99724.34
2022-08-27T22:34:26.112Z,99727.84
2022-08-27T22:36:53.135Z,99720.53
2022-08-27T22:39:20.356Z,99718.31
2022-08-27T22:41:49.100Z,99727.53
2022-08-27T22:44:16.560Z,99721.56
2022-08-27T22:46:43.584Z,99727.47
2022-08-27T22:49:10.707Z,99726.88
2022-08-27T22:51:37.724Z,99727.41
2022-08-27T22:54:05.286Z,99724.94
2022-08-27T22:56:32.255Z,99729.78
2022-08-27T22:58:59.535Z,99723.81
2022-08-27T23:01:26.672Z,99729.72
2022-08-27T23:03:54.715Z,99730.81
2022-08-27T23:06:21.962Z,99728.09
2022-08-27T23:08:48.914Z,99732.69
2022-08-27T23:11:16.017Z,99730.81
2022-08-27T23:13:43.064Z,99735.16
2022-08-27T23:16:10.265Z,99737.56
2022-08-27T23:18:39.736Z,99740.28
2022-08-27T23:21:07.747Z,99740.75
2022-08-27T23:23:35.899Z,99739.13
2022-08-27T23:26:22.265Z,99734.78
2022-08-27T23:28:49.290Z,99734.25
2022-08-27T23:31:16.588Z,99738.25
2022-08-27T23:33:43.687Z,99732.59
2022-08-27T23:36:10.781Z,99740.16
2022-08-27T23:38:37.872Z,99739.34
2022-08-27T23:41:05.683Z,99746.09
2022-08-27T23:43:32.620Z,99739.84
2022-08-27T23:45:59.657Z,99744.94
2022-08-27T23:48:26.743Z,99747.34
2022-08-27T23:50:53.724Z,99742.19
2022-08-27T23:53:20.777Z,99744.31
2022-08-27T23:55:47.788Z,99747.28
2022-08-27T23:58:15.017Z,99741.06
